Time;durP1;ratioP1;P1;durP2;ratioP2;P2;SDS_P1;SDS_P2;PMS_P1;PMS_P2;Temp;Humidity;BMP_temperature;BMP_pressure;BME280_temperature;BME280_humidity;BME280_pressure;Samples;Min_cycle;Max_cycle;Signal;HPM_P1;HPM_P2
2023/03/13 00:01:22;;;;;;;1.77;1.37;;;;;;;;;;5124233;28;20034;-63
2023/03/13 00:03:49;;;;;;;2.67;1.60;;;;;;;;;;5110704;27;20016;-64
2023/03/13 00:06:16;;;;;;;2.20;1.17;;;;;;;;;;5110634;28;20535;-65
2023/03/13 00:08:43;;;;;;;2.10;1.37;;;;;;;;;;5115506;28;20023;-64
2023/03/13 00:11:11;;;;;;;2.60;1.50;;;;;;;;;;5117528;27;20458;-65
2023/03/13 00:13:38;;;;;;;1.97;1.40;;;;;;;;;;5120427;28;20096;-64
2023/03/13 00:16:07;;;;;;;8.63;1.63;;;;;;;;;;5119421;27;20041;-65
2023/03/13 00:18:34;;;;;;;2.07;1.33;;;;;;;;;;5107234;28;20047;-64
2023/03/13 00:21:08;;;;;;;5.03;1.63;;;;;;;;;;5108355;28;20043;-65
2023/03/13 00:23:35;;;;;;;2.35;1.40;;;;;;;;;;5116020;28;20031;-64
2023/03/13 00:26:04;;;;;;;2.37;1.57;;;;;;;;;;5107055;28;20044;-64
2023/03/13 00:28:31;;;;;;;7.83;1.83;;;;;;;;;;5112573;28;20027;-64
2023/03/13 00:31:05;;;;;;;2.53;1.33;;;;;;;;;;5117366;28;20028;-64
2023/03/13 00:33:33;;;;;;;5.15;1.67;;;;;;;;;;5107900;28;20036;-65
2023/03/13 00:36:04;;;;;;;1.43;1.23;;;;;;;;;;5115952;28;20031;-64
2023/03/13 00:38:31;;;;;;;3.80;1.47;;;;;;;;;;5111469;28;20047;-64
2023/03/13 00:41:02;;;;;;;1.80;1.33;;;;;;;;;;5110010;28;20114;-64
2023/03/13 00:43:29;;;;;;;2.17;1.47;;;;;;;;;;5106161;27;20023;-64
2023/03/13 00:45:55;;;;;;;2.43;1.57;;;;;;;;;;5095070;28;20031;-64
2023/03/13 00:48:23;;;;;;;1.47;1.20;;;;;;;;;;5105089;28;20086;-64
2023/03/13 00:50:50;;;;;;;2.40;1.33;;;;;;;;;;5111556;28;20016;-62
2023/03/13 00:53:16;;;;;;;1.77;1.30;;;;;;;;;;5106755;28;20028;-61
2023/03/13 00:55:56;;;;;;;9.93;1.83;;;;;;;;;;5108791;28;20383;-64
2023/03/13 00:58:24;;;;;;;2.70;1.77;;;;;;;;;;5115189;28;20508;-60
2023/03/13 01:00:51;;;;;;;3.77;1.60;;;;;;;;;;5108140;28;20036;-64
2023/03/13 01:03:18;;;;;;;1.70;1.30;;;;;;;;;;5105817;28;20380;-64
2023/03/13 01:05:47;;;;;;;16.93;1.80;;;;;;;;;;5096431;28;20493;-64
2023/03/13 01:08:13;;;;;;;2.37;1.67;;;;;;;;;;5103652;28;20489;-60
2023/03/13 01:10:40;;;;;;;2.37;1.40;;;;;;;;;;5105357;28;20012;-60
2023/03/13 01:13:07;;;;;;;2.60;1.90;;;;;;;;;;5103472;28;20028;-60
2023/03/13 01:15:36;;;;;;;1.37;0.97;;;;;;;;;;5108739;28;20465;-63
2023/03/13 01:18:03;;;;;;;5.33;1.37;;;;;;;;;;5099597;28;20032;-64
2023/03/13 01:20:30;;;;;;;2.10;1.50;;;;;;;;;;5097869;28;20035;-64
2023/03/13 01:22:59;;;;;;;1.00;0.87;;;;;;;;;;5109059;28;20024;-63
2023/03/13 01:25:26;;;;;;;2.03;1.43;;;;;;;;;;5098856;28;20023;-64
2023/03/13 01:27:52;;;;;;;3.40;1.63;;;;;;;;;;5102777;28;20026;-64
2023/03/13 01:30:19;;;;;;;2.93;1.87;;;;;;;;;;5103748;28;20062;-60
2023/03/13 01:32:46;;;;;;;4.40;1.73;;;;;;;;;;5097901;28;20031;-64
2023/03/13 01:35:14;;;;;;;4.50;1.93;;;;;;;;;;5104417;28;20099;-64
2023/03/13 01:37:40;;;;;;;1.57;1.00;;;;;;;;;;5102951;28;20115;-64
2023/03/13 01:40:07;;;;;;;3.50;1.40;;;;;;;;;;5109258;28;20073;-59
2023/03/13 01:42:49;;;;;;;2.20;1.50;;;;;;;;;;5109310;28;20043;-58
2023/03/13 01:45:34;;;;;;;3.30;2.00;;;;;;;;;;5104196;28;20024;-63
2023/03/13 01:48:00;;;;;;;2.10;1.48;;;;;;;;;;5109256;28;20042;-64
2023/03/13 01:50:27;;;;;;;2.90;1.73;;;;;;;;;;5106435;28;20046;-61
2023/03/13 01:52:54;;;;;;;2.30;1.40;;;;;;;;;;5095661;28;20539;-64
2023/03/13 01:55:20;;;;;;;3.37;1.63;;;;;;;;;;5108889;28;20099;-63
2023/03/13 01:57:49;;;;;;;2.43;1.87;;;;;;;;;;5103798;28;20031;-58
2023/03/13 02:00:22;;;;;;;2.73;1.20;;;;;;;;;;5097511;28;20044;-63
2023/03/13 02:02:51;;;;;;;10.27;1.80;;;;;;;;;;5104366;28;20020;-58
2023/03/13 02:05:19;;;;;;;3.60;1.70;;;;;;;;;;5104446;28;20024;-63
2023/03/13 02:07:48;;;;;;;21.10;1.73;;;;;;;;;;5107102;28;20543;-63
2023/03/13 02:10:16;;;;;;;3.00;1.87;;;;;;;;;;5105860;28;20027;-63
2023/03/13 02:12:43;;;;;;;3.00;1.90;;;;;;;;;;5097969;28;20031;-59
2023/03/13 02:15:15;;;;;;;5.60;2.70;;;;;;;;;;5098224;28;20490;-62
2023/03/13 02:17:42;;;;;;;2.50;1.70;;;;;;;;;;5105337;28;20500;-64
2023/03/13 02:20:10;;;;;;;2.30;1.70;;;;;;;;;;5108927;28;20042;-63
2023/03/13 02:23:01;;;;;;;4.23;2.10;;;;;;;;;;5109957;28;20016;-63
2023/03/13 02:25:27;;;;;;;1.53;1.13;;;;;;;;;;5103354;28;20031;-63
2023/03/13 02:28:00;;;;;;;9.03;2.50;;;;;;;;;;5108607;28;20111;-63
2023/03/13 02:30:27;;;;;;;3.93;1.27;;;;;;;;;;5109947;28;20042;-65
2023/03/13 02:32:54;;;;;;;1.63;1.23;;;;;;;;;;5092564;28;20474;-63
2023/03/13 02:35:22;;;;;;;1.53;1.03;;;;;;;;;;5099309;28;20023;-63
2023/03/13 02:37:55;;;;;;;2.10;1.57;;;;;;;;;;5096331;28;20521;-63
2023/03/13 02:40:24;;;;;;;0.63;0.63;;;;;;;;;;5091613;28;20054;-63
2023/03/13 02:42:52;;;;;;;2.00;1.40;;;;;;;;;;5107013;28;20500;-63
2023/03/13 02:45:18;;;;;;;4.33;1.80;;;;;;;;;;5103775;28;20444;-63
2023/03/13 02:47:45;;;;;;;4.23;1.57;;;;;;;;;;5108538;28;20045;-63
2023/03/13 02:50:13;;;;;;;1.67;1.33;;;;;;;;;;5096639;28;20107;-63
2023/03/13 02:52:47;;;;;;;3.53;1.73;;;;;;;;;;5112910;28;20060;-63
2023/03/13 02:55:21;;;;;;;1.77;1.45;;;;;;;;;;5104144;28;20478;-63
2023/03/13 02:57:48;;;;;;;1.93;1.33;;;;;;;;;;5091119;28;20038;-64
2023/03/13 03:00:16;;;;;;;1.97;1.43;;;;;;;;;;5100658;28;20035;-63
2023/03/13 03:02:43;;;;;;;3.67;2.10;;;;;;;;;;5099527;28;20016;-63
2023/03/13 03:05:10;;;;;;;2.83;1.50;;;;;;;;;;5107813;28;20020;-62
2023/03/13 03:07:37;;;;;;;3.20;1.90;;;;;;;;;;5100195;28;20039;-63
2023/03/13 03:10:04;;;;;;;1.40;1.00;;;;;;;;;;5112372;28;20034;-62
2023/03/13 03:12:31;;;;;;;2.73;1.67;;;;;;;;;;5113613;28;20027;-62
2023/03/13 03:14:58;;;;;;;4.03;1.97;;;;;;;;;;5094493;28;20039;-62
2023/03/13 03:17:24;;;;;;;2.73;1.60;;;;;;;;;;5089527;28;20024;-63
2023/03/13 03:19:51;;;;;;;2.93;2.10;;;;;;;;;;5105970;28;20554;-62
2023/03/13 03:22:18;;;;;;;5.67;2.73;;;;;;;;;;5107741;28;20377;-62
2023/03/13 03:24:44;;;;;;;3.07;2.27;;;;;;;;;;5102895;28;20465;-62
2023/03/13 03:27:11;;;;;;;4.43;2.63;;;;;;;;;;5112777;28;20425;-62
2023/03/13 03:29:38;;;;;;;3.57;2.27;;;;;;;;;;5096801;28;20080;-62
2023/03/13 03:32:05;;;;;;;2.00;1.57;;;;;;;;;;5113259;28;20484;-62
2023/03/13 03:34:32;;;;;;;1.83;1.27;;;;;;;;;;5108337;28;20036;-62
2023/03/13 03:36:58;;;;;;;5.63;2.90;;;;;;;;;;5109192;28;20122;-63
2023/03/13 03:39:25;;;;;;;6.70;4.37;;;;;;;;;;5101929;28;20032;-62
2023/03/13 03:41:52;;;;;;;11.47;4.47;;;;;;;;;;5097580;28;20036;-62
2023/03/13 03:44:18;;;;;;;7.07;4.47;;;;;;;;;;5090214;28;20111;-62
2023/03/13 03:46:45;;;;;;;12.00;5.73;;;;;;;;;;5094171;28;20024;-63
2023/03/13 03:49:12;;;;;;;11.00;3.90;;;;;;;;;;5109371;28;20069;-62
2023/03/13 03:51:39;;;;;;;14.93;3.73;;;;;;;;;;5105293;28;20081;-63
2023/03/13 03:54:05;;;;;;;4.87;3.40;;;;;;;;;;5102995;28;20051;-63
2023/03/13 03:56:32;;;;;;;4.83;2.90;;;;;;;;;;5093885;28;20040;-62
2023/03/13 03:58:59;;;;;;;4.03;2.63;;;;;;;;;;5106129;28;20028;-63
2023/03/13 04:01:26;;;;;;;17.57;3.27;;;;;;;;;;5092452;28;20035;-63
2023/03/13 04:03:52;;;;;;;5.63;3.00;;;;;;;;;;5095160;28;20020;-62
2023/03/13 04:06:19;;;;;;;8.40;3.03;;;;;;;;;;5103416;28;20470;-62
2023/03/13 04:08:46;;;;;;;2.40;1.67;;;;;;;;;;5110454;28;20028;-63
2023/03/13 04:11:12;;;;;;;1.63;1.30;;;;;;;;;;5109124;28;20054;-63
2023/03/13 04:13:39;;;;;;;2.70;1.73;;;;;;;;;;5105907;28;20027;-63
2023/03/13 04:16:09;;;;;;;3.63;2.40;;;;;;;;;;5114664;28;20048;-63
2023/03/13 04:18:36;;;;;;;4.83;2.77;;;;;;;;;;5112153;28;20099;-62
2023/03/13 04:21:03;;;;;;;5.57;3.67;;;;;;;;;;5106756;28;20035;-63
2023/03/13 04:23:30;;;;;;;6.67;3.13;;;;;;;;;;5095525;28;20046;-63
2023/03/13 04:25:57;;;;;;;8.23;2.47;;;;;;;;;;5096628;28;20027;-63
2023/03/13 04:28:23;;;;;;;4.37;2.70;;;;;;;;;;5109722;28;20055;-62
2023/03/13 04:30:51;;;;;;;2.93;2.03;;;;;;;;;;5102888;28;20062;-62
2023/03/13 04:33:18;;;;;;;3.03;2.13;;;;;;;;;;5112816;28;20038;-62
2023/03/13 04:35:45;;;;;;;2.90;1.50;;;;;;;;;;5109817;28;20020;-62
2023/03/13 04:38:11;;;;;;;1.97;1.17;;;;;;;;;;5106868;28;20023;-63
2023/03/13 04:40:38;;;;;;;2.63;1.80;;;;;;;;;;5109871;28;20084;-63
2023/03/13 04:43:05;;;;;;;4.13;2.43;;;;;;;;;;5114512;28;20680;-62
2023/03/13 04:45:32;;;;;;;5.13;1.87;;;;;;;;;;5100688;28;20028;-63
2023/03/13 04:47:58;;;;;;;1.93;1.40;;;;;;;;;;5097302;28;20027;-62
2023/03/13 04:50:25;;;;;;;7.97;1.97;;;;;;;;;;5108328;28;20543;-62
2023/03/13 04:52:52;;;;;;;2.00;1.57;;;;;;;;;;5105044;28;20031;-62
2023/03/13 04:55:19;;;;;;;2.00;1.43;;;;;;;;;;5109581;28;20011;-63
2023/03/13 04:57:45;;;;;;;4.70;2.17;;;;;;;;;;5099328;28;20064;-63
2023/03/13 05:00:15;;;;;;;1.80;1.43;;;;;;;;;;5114777;28;20035;-62
2023/03/13 05:02:42;;;;;;;2.10;1.60;;;;;;;;;;5106296;28;20024;-62
2023/03/13 05:05:09;;;;;;;1.53;1.23;;;;;;;;;;5094696;28;20053;-62
2023/03/13 05:07:38;;;;;;;1.87;1.40;;;;;;;;;;5101415;28;20034;-62
2023/03/13 05:10:05;;;;;;;3.03;2.07;;;;;;;;;;5108951;28;20350;-62
2023/03/13 05:12:32;;;;;;;6.10;2.00;;;;;;;;;;5108126;28;20027;-62
2023/03/13 05:14:59;;;;;;;6.60;2.60;;;;;;;;;;5089227;28;20532;-62
2023/03/13 05:17:25;;;;;;;4.53;1.43;;;;;;;;;;5101182;28;20027;-62
2023/03/13 05:19:52;;;;;;;2.50;2.20;;;;;;;;;;5106832;28;20028;-62
2023/03/13 05:22:19;;;;;;;4.47;2.60;;;;;;;;;;5097592;28;20021;-62
2023/03/13 05:24:45;;;;;;;4.87;2.87;;;;;;;;;;5102802;28;20024;-63
2023/03/13 05:27:12;;;;;;;4.87;2.90;;;;;;;;;;5104320;28;20024;-64
2023/03/13 05:29:39;;;;;;;2.90;1.87;;;;;;;;;;5092440;28;20034;-64
2023/03/13 05:32:06;;;;;;;4.93;3.30;;;;;;;;;;5093374;28;20020;-64
2023/03/13 05:34:32;;;;;;;4.87;2.93;;;;;;;;;;5104994;28;20020;-64
2023/03/13 05:37:00;;;;;;;2.90;2.10;;;;;;;;;;5106186;28;20015;-63
2023/03/13 05:39:26;;;;;;;4.87;2.87;;;;;;;;;;5108993;27;20051;-64
2023/03/13 05:41:53;;;;;;;4.43;2.50;;;;;;;;;;5113905;28;20041;-64
2023/03/13 05:44:20;;;;;;;2.70;2.00;;;;;;;;;;5112819;28;20077;-64
2023/03/13 05:46:46;;;;;;;2.67;1.37;;;;;;;;;;5114125;28;20501;-63
2023/03/13 05:49:13;;;;;;;3.43;1.90;;;;;;;;;;5113938;28;20024;-64
2023/03/13 05:51:40;;;;;;;2.43;1.83;;;;;;;;;;5113343;28;20024;-63
2023/03/13 05:54:06;;;;;;;2.60;1.70;;;;;;;;;;5108182;28;20436;-64
2023/03/13 05:56:33;;;;;;;4.77;2.43;;;;;;;;;;5108563;28;20066;-64
2023/03/13 05:59:00;;;;;;;2.57;2.00;;;;;;;;;;5108558;28;20024;-64
2023/03/13 06:01:26;;;;;;;2.67;1.83;;;;;;;;;;5108525;28;20027;-63
2023/03/13 06:03:53;;;;;;;2.10;1.80;;;;;;;;;;5113237;27;20035;-64
2023/03/13 06:06:20;;;;;;;2.53;1.90;;;;;;;;;;5093412;28;20028;-63
2023/03/13 06:08:47;;;;;;;1.43;1.23;;;;;;;;;;5106815;28;20036;-64
2023/03/13 06:11:13;;;;;;;3.63;1.80;;;;;;;;;;5112859;28;20032;-64
2023/03/13 06:13:40;;;;;;;3.40;2.20;;;;;;;;;;5113372;27;20031;-64
2023/03/13 06:16:07;;;;;;;1.43;1.23;;;;;;;;;;5104765;28;20031;-64
2023/03/13 06:18:34;;;;;;;4.53;2.33;;;;;;;;;;5097079;28;20024;-64
2023/03/13 06:21:01;;;;;;;2.00;1.47;;;;;;;;;;5107957;28;20031;-63
2023/03/13 06:23:28;;;;;;;2.83;1.93;;;;;;;;;;5103807;28;20474;-64
2023/03/13 06:25:55;;;;;;;2.23;1.73;;;;;;;;;;5092431;28;20130;-64
2023/03/13 06:28:21;;;;;;;2.63;2.03;;;;;;;;;;5092351;28;20494;-64
2023/03/13 06:30:48;;;;;;;2.53;1.70;;;;;;;;;;5092686;28;20028;-64
2023/03/13 06:33:15;;;;;;;2.53;1.57;;;;;;;;;;5093067;28;20024;-64
2023/03/13 06:35:42;;;;;;;3.00;2.13;;;;;;;;;;5092800;28;20024;-63
2023/03/13 06:38:09;;;;;;;2.70;1.77;;;;;;;;;;5091864;28;20377;-63
2023/03/13 06:40:36;;;;;;;9.53;2.40;;;;;;;;;;5107673;28;20119;-64
2023/03/13 06:43:03;;;;;;;3.90;2.30;;;;;;;;;;5103491;28;20370;-64
2023/03/13 06:45:29;;;;;;;4.07;2.57;;;;;;;;;;5088551;28;20090;-63
2023/03/13 06:47:56;;;;;;;3.00;2.63;;;;;;;;;;5111374;28;20019;-64
2023/03/13 06:50:23;;;;;;;6.07;3.57;;;;;;;;;;5112882;28;20044;-63
2023/03/13 06:52:50;;;;;;;4.53;2.67;;;;;;;;;;5112617;28;20019;-64
2023/03/13 06:55:16;;;;;;;4.93;3.07;;;;;;;;;;5112763;28;20031;-63
2023/03/13 06:57:43;;;;;;;8.00;3.37;;;;;;;;;;5112546;28;20106;-64
2023/03/13 07:00:13;;;;;;;3.23;2.60;;;;;;;;;;5107984;28;20061;-64
2023/03/13 07:02:40;;;;;;;3.70;2.27;;;;;;;;;;5106583;28;20541;-64
2023/03/13 07:05:07;;;;;;;2.40;1.80;;;;;;;;;;5107244;28;20031;-64
2023/03/13 07:07:34;;;;;;;4.37;2.70;;;;;;;;;;5106401;28;20035;-64
2023/03/13 07:10:00;;;;;;;7.40;2.80;;;;;;;;;;5110848;28;20024;-63
2023/03/13 07:12:27;;;;;;;2.53;2.07;;;;;;;;;;5096164;28;20523;-63
2023/03/13 07:14:54;;;;;;;2.10;1.80;;;;;;;;;;5112559;28;20084;-63
2023/03/13 07:17:20;;;;;;;2.57;2.10;;;;;;;;;;5094786;28;20024;-64
2023/03/13 07:19:47;;;;;;;18.93;2.97;;;;;;;;;;5092256;28;20036;-64
2023/03/13 07:22:14;;;;;;;3.93;2.13;;;;;;;;;;5088299;28;20028;-64
2023/03/13 07:24:40;;;;;;;11.73;3.20;;;;;;;;;;5101401;28;20055;-63
2023/03/13 07:27:07;;;;;;;2.47;2.00;;;;;;;;;;5106942;28;20389;-63
2023/03/13 07:29:34;;;;;;;3.87;2.93;;;;;;;;;;5106721;28;20076;-64
2023/03/13 07:32:00;;;;;;;4.50;3.03;;;;;;;;;;5109680;28;20103;-64
2023/03/13 07:34:27;;;;;;;3.23;2.47;;;;;;;;;;5111910;28;20035;-64
2023/03/13 07:36:54;;;;;;;3.20;2.13;;;;;;;;;;5112088;28;20039;-64
2023/03/13 07:39:20;;;;;;;3.07;2.03;;;;;;;;;;5112023;28;20082;-63
2023/03/13 07:41:47;;;;;;;2.90;2.07;;;;;;;;;;5114433;28;20095;-64
2023/03/13 07:44:14;;;;;;;2.53;1.60;;;;;;;;;;5098000;28;20059;-63
2023/03/13 07:46:41;;;;;;;5.67;2.33;;;;;;;;;;5101557;28;20468;-64
2023/03/13 07:49:07;;;;;;;3.30;2.20;;;;;;;;;;5110572;28;20023;-63
2023/03/13 07:51:34;;;;;;;6.43;2.77;;;;;;;;;;5110411;28;20039;-64
2023/03/13 07:54:01;;;;;;;14.87;2.60;;;;;;;;;;5111476;28;20019;-64
2023/03/13 07:56:27;;;;;;;4.43;2.63;;;;;;;;;;5113050;28;20063;-63
2023/03/13 07:58:54;;;;;;;3.60;2.40;;;;;;;;;;5116149;28;20072;-63
2023/03/13 08:01:24;;;;;;;4.10;2.43;;;;;;;;;;5099881;28;20028;-63
2023/03/13 08:03:51;;;;;;;2.77;1.70;;;;;;;;;;5095768;28;20024;-63
2023/03/13 08:06:19;;;;;;;3.07;2.57;;;;;;;;;;5092679;28;20043;-64
2023/03/13 08:08:46;;;;;;;4.67;2.40;;;;;;;;;;5090124;28;20441;-63
2023/03/13 08:11:15;;;;;;;5.63;2.47;;;;;;;;;;5089829;28;20493;-63
2023/03/13 08:13:41;;;;;;;2.97;1.97;;;;;;;;;;5090106;28;20028;-64
2023/03/13 08:16:15;;;;;;;3.83;2.30;;;;;;;;;;5092196;28;20076;-63
2023/03/13 08:18:43;;;;;;;3.63;2.47;;;;;;;;;;5109147;28;20482;-63
2023/03/13 08:21:17;;;;;;;2.23;1.63;;;;;;;;;;5097750;28;20069;-63
2023/03/13 08:23:44;;;;;;;2.70;2.07;;;;;;;;;;5095571;28;20441;-63
2023/03/13 08:26:14;;;;;;;3.60;2.17;;;;;;;;;;5107371;28;20034;-64
2023/03/13 08:28:41;;;;;;;4.47;2.20;;;;;;;;;;5111925;28;20050;-63
2023/03/13 08:31:09;;;;;;;7.30;3.17;;;;;;;;;;5109833;28;20032;-63
2023/03/13 08:33:36;;;;;;;3.03;2.07;;;;;;;;;;5090048;28;20352;-63
2023/03/13 08:36:16;;;;;;;4.80;2.57;;;;;;;;;;5089155;28;20039;-63
2023/03/13 08:38:44;;;;;;;5.50;2.80;;;;;;;;;;5111494;28;20039;-63
2023/03/13 08:41:11;;;;;;;1.80;1.43;;;;;;;;;;5114946;28;20035;-64
2023/03/13 08:43:38;;;;;;;6.57;2.40;;;;;;;;;;5115203;28;20031;-64
2023/03/13 08:46:04;;;;;;;7.87;2.87;;;;;;;;;;5099683;28;20024;-63
2023/03/13 08:48:31;;;;;;;4.67;1.93;;;;;;;;;;5094452;28;20024;-63
2023/03/13 08:51:05;;;;;;;5.27;2.73;;;;;;;;;;5106070;28;20376;-63
2023/03/13 08:53:33;;;;;;;3.55;2.75;;;;;;;;;;5089611;28;20116;-64
2023/03/13 08:56:03;;;;;;;3.63;2.37;;;;;;;;;;5089188;28;20107;-63
2023/03/13 08:58:30;;;;;;;7.53;2.63;;;;;;;;;;5089290;28;20363;-64
2023/03/13 09:01:03;;;;;;;3.30;2.47;;;;;;;;;;5091661;28;20032;-63
2023/03/13 09:03:30;;;;;;;3.67;2.77;;;;;;;;;;5094698;28;20020;-64
2023/03/13 09:05:57;;;;;;;2.87;1.90;;;;;;;;;;5094569;28;20050;-63
2023/03/13 09:08:24;;;;;;;2.20;1.60;;;;;;;;;;5094602;28;20544;-64
2023/03/13 09:11:01;;;;;;;3.67;1.80;;;;;;;;;;5095524;28;20028;-63
2023/03/13 09:13:28;;;;;;;4.30;2.10;;;;;;;;;;5108397;28;20503;-63
2023/03/13 09:15:59;;;;;;;5.13;1.93;;;;;;;;;;5108210;28;20027;-63
2023/03/13 09:18:25;;;;;;;4.30;3.17;;;;;;;;;;5108838;28;20038;-64
2023/03/13 09:20:53;;;;;;;5.40;2.90;;;;;;;;;;5108544;28;20039;-64
2023/03/13 09:23:19;;;;;;;4.57;3.43;;;;;;;;;;5094654;28;20025;-65
2023/03/13 09:25:46;;;;;;;5.13;3.10;;;;;;;;;;5102632;28;20028;-64
2023/03/13 09:28:13;;;;;;;5.17;3.53;;;;;;;;;;5114642;28;20358;-63
2023/03/13 09:30:39;;;;;;;2.57;2.00;;;;;;;;;;5113647;28;20024;-64
2023/03/13 09:33:06;;;;;;;4.43;2.97;;;;;;;;;;5113828;28;20027;-64
2023/03/13 09:35:33;;;;;;;4.43;2.53;;;;;;;;;;5090732;28;20482;-63
2023/03/13 09:37:59;;;;;;;3.30;2.40;;;;;;;;;;5088128;28;20031;-63
2023/03/13 09:40:27;;;;;;;3.77;2.93;;;;;;;;;;5097736;28;20042;-63
2023/03/13 09:43:00;;;;;;;5.97;2.63;;;;;;;;;;5108833;28;20031;-63
2023/03/13 09:45:35;;;;;;;4.17;2.97;;;;;;;;;;5094158;28;20053;-63
2023/03/13 09:48:07;;;;;;;2.77;2.00;;;;;;;;;;5094131;28;20020;-63
2023/03/13 09:50:34;;;;;;;3.70;2.83;;;;;;;;;;5093959;28;20020;-64
2023/03/13 09:53:11;;;;;;;27.33;3.70;;;;;;;;;;5107469;28;20632;-63
2023/03/13 09:55:38;;;;;;;2.83;1.97;;;;;;;;;;5102101;28;20031;-63
2023/03/13 09:58:17;;;;;;;5.40;2.80;;;;;;;;;;5089301;28;20051;-63
2023/03/13 10:00:48;;;;;;;7.00;3.23;;;;;;;;;;5088040;28;20032;-63
2023/03/13 10:03:17;;;;;;;4.37;2.10;;;;;;;;;;5103745;28;20034;-63
2023/03/13 10:05:48;;;;;;;4.27;3.17;;;;;;;;;;5107300;28;20030;-63
2023/03/13 10:08:16;;;;;;;6.67;4.00;;;;;;;;;;5111945;28;20030;-63
2023/03/13 10:10:49;;;;;;;3.50;2.90;;;;;;;;;;5101318;28;20357;-63
2023/03/13 10:13:25;;;;;;;3.03;2.60;;;;;;;;;;5093536;28;20028;-63
2023/03/13 10:16:01;;;;;;;4.40;3.20;;;;;;;;;;5093227;28;20032;-63
2023/03/13 10:18:27;;;;;;;5.40;3.37;;;;;;;;;;5093094;28;20028;-64
2023/03/13 10:20:58;;;;;;;3.73;2.53;;;;;;;;;;5087311;28;20689;-63
2023/03/13 10:23:38;;;;;;;5.57;3.07;;;;;;;;;;5100575;28;20279;-63
2023/03/13 10:26:04;;;;;;;4.57;2.53;;;;;;;;;;5096169;28;20024;-63
2023/03/13 10:28:31;;;;;;;3.73;3.20;;;;;;;;;;5106225;28;20276;-63
2023/03/13 10:31:02;;;;;;;6.07;3.70;;;;;;;;;;5107376;28;20016;-63
2023/03/13 10:33:29;;;;;;;3.87;2.90;;;;;;;;;;5092923;28;20462;-63
2023/03/13 10:36:00;;;;;;;16.70;4.17;;;;;;;;;;5092995;28;20458;-64
2023/03/13 10:38:27;;;;;;;5.47;3.87;;;;;;;;;;5092781;28;20043;-63
2023/03/13 10:40:58;;;;;;;22.33;4.60;;;;;;;;;;5096720;28;20489;-63
2023/03/13 10:43:25;;;;;;;4.13;3.20;;;;;;;;;;5107475;28;20738;-63
2023/03/13 10:45:52;;;;;;;5.53;2.83;;;;;;;;;;5093652;28;20269;-63
2023/03/13 10:48:21;;;;;;;4.00;3.07;;;;;;;;;;5087298;28;20296;-63
2023/03/13 10:50:49;;;;;;;5.90;3.60;;;;;;;;;;5087202;28;20611;-63
2023/03/13 10:53:31;;;;;;;4.30;3.37;;;;;;;;;;5092352;28;20253;-63
2023/03/13 10:56:00;;;;;;;2.97;2.33;;;;;;;;;;5092688;28;20264;-63
2023/03/13 10:58:31;;;;;;;4.07;2.90;;;;;;;;;;5092254;28;20245;-63
2023/03/13 11:01:32;;;;;;;15.30;3.60;;;;;;;;;;5092502;28;20615;-63
2023/03/13 11:03:59;;;;;;;4.40;3.07;;;;;;;;;;5057757;28;20308;-63
2023/03/13 11:06:31;;;;;;;3.77;2.47;;;;;;;;;;5095100;28;20682;-63
2023/03/13 11:09:16;;;;;;;6.43;3.17;;;;;;;;;;5107236;28;20255;-63
2023/03/13 11:11:50;;;;;;;6.22;3.22;;;;;;;;;;5086990;28;20300;-63
2023/03/13 11:14:21;;;;;;;3.28;2.65;;;;;;;;;;5089200;28;20016;-63
2023/03/13 11:16:49;;;;;;;7.10;3.30;;;;;;;;;;5092123;28;20039;-63
2023/03/13 11:19:19;;;;;;;4.53;2.87;;;;;;;;;;5104230;28;20661;-63
2023/03/13 11:22:04;;;;;;;3.30;1.93;;;;;;;;;;5092266;28;20645;-63
2023/03/13 11:24:42;;;;;;;3.30;1.92;;;;;;;;;;5102352;28;20245;-63
2023/03/13 11:27:15;;;;;;;6.13;3.40;;;;;;;;;;5108656;28;20054;-63
2023/03/13 11:29:50;;;;;;;2.80;2.47;;;;;;;;;;5106943;28;20817;-63
2023/03/13 11:32:26;;;;;;;5.53;3.53;;;;;;;;;;5107101;28;20641;-63
2023/03/13 11:34:58;;;;;;;3.97;2.97;;;;;;;;;;5106564;28;20291;-63
2023/03/13 11:37:26;;;;;;;3.97;2.57;;;;;;;;;;5094704;28;20295;-63
2023/03/13 11:40:15;;;;;;;3.57;2.53;;;;;;;;;;5091969;28;20790;-62
2023/03/13 11:43:00;;;;;;;7.90;3.40;;;;;;;;;;5092034;28;20291;-63
2023/03/13 11:45:26;;;;;;;2.70;2.05;;;;;;;;;;5092256;28;20271;-63
2023/03/13 11:48:11;;;;;;;4.37;3.17;;;;;;;;;;5091566;28;20370;-63
2023/03/13 11:50:41;;;;;;;3.13;2.53;;;;;;;;;;5086467;28;20756;-63
2023/03/13 11:53:20;;;;;;;3.50;2.70;;;;;;;;;;5085996;28;20081;-63
2023/03/13 11:55:53;;;;;;;4.20;3.27;;;;;;;;;;5086439;28;20289;-63
2023/03/13 11:58:25;;;;;;;9.97;3.67;;;;;;;;;;5087501;28;20248;-62
2023/03/13 12:01:11;;;;;;;3.10;2.37;;;;;;;;;;5091832;28;20291;-63
2023/03/13 12:03:37;;;;;;;;;;;;;;;;;;5092384;28;20670;-63
2023/03/13 12:06:06;;;;;;;2.77;2.20;;;;;;;;;;5091947;28;20013;-64
2023/03/13 12:08:39;;;;;;;5.27;3.23;;;;;;;;;;5091861;28;20253;-63
2023/03/13 12:11:27;;;;;;;4.90;3.47;;;;;;;;;;5088678;28;20289;-62
2023/03/13 12:14:13;;;;;;;3.87;2.70;;;;;;;;;;5102118;28;20264;-63
2023/03/13 12:16:39;;;;;;;;;;;;;;;;;;5106997;28;20684;-63
2023/03/13 12:19:09;;;;;;;2.77;2.13;;;;;;;;;;5106381;28;19904;-63
2023/03/13 12:21:38;;;;;;;2.93;1.80;;;;;;;;;;5109222;28;20307;-62
2023/03/13 12:24:05;;;;;;;3.30;2.73;;;;;;;;;;5112067;28;20746;-63
2023/03/13 12:26:31;;;;;;;4.47;3.07;;;;;;;;;;5107384;28;20340;-63
2023/03/13 12:29:13;;;;;;;4.53;3.37;;;;;;;;;;5115530;28;20595;-63
2023/03/13 12:31:46;;;;;;;3.40;2.50;;;;;;;;;;5096911;28;20309;-63
2023/03/13 12:34:16;;;;;;;3.33;2.23;;;;;;;;;;5090282;28;20382;-63
2023/03/13 12:36:49;;;;;;;3.90;2.80;;;;;;;;;;5090706;28;20263;-63
2023/03/13 12:39:27;;;;;;;4.67;3.67;;;;;;;;;;5089504;28;20272;-62
2023/03/13 12:42:13;;;;;;;2.77;2.10;;;;;;;;;;5089275;28;20276;-62
2023/03/13 12:44:40;;;;;;;3.05;2.63;;;;;;;;;;5095999;28;20261;-62
2023/03/13 12:47:18;;;;;;;4.57;2.80;;;;;;;;;;5105958;28;20039;-63
2023/03/13 12:49:45;;;;;;;4.10;2.63;;;;;;;;;;5094886;28;20306;-63
2023/03/13 12:52:30;;;;;;;3.30;2.80;;;;;;;;;;5094824;28;20274;-63
2023/03/13 12:55:06;;;;;;;5.78;2.05;;;;;;;;;;5093329;28;20256;-63
2023/03/13 12:57:41;;;;;;;4.37;2.93;;;;;;;;;;5101437;28;20036;-63
2023/03/13 13:00:15;;;;;;;2.27;1.73;;;;;;;;;;5108461;28;20288;-63
2023/03/13 13:02:42;;;;;;;4.37;2.63;;;;;;;;;;5103869;28;20772;-63
2023/03/13 13:05:19;;;;;;;4.40;2.67;;;;;;;;;;5100263;28;20268;-63
2023/03/13 13:07:52;;;;;;;3.87;2.40;;;;;;;;;;5095694;28;20252;-63
2023/03/13 13:10:24;;;;;;;3.43;1.90;;;;;;;;;;5094308;28;20298;-63
2023/03/13 13:13:08;;;;;;;2.43;1.97;;;;;;;;;;5095039;28;20294;-63
2023/03/13 13:15:42;;;;;;;1.90;1.65;;;;;;;;;;5114469;27;20292;-63
2023/03/13 13:18:26;;;;;;;2.73;2.03;;;;;;;;;;5107037;28;20531;-63
2023/03/13 13:21:03;;;;;;;3.97;2.77;;;;;;;;;;5092734;28;20283;-63
2023/03/13 13:23:36;;;;;;;3.00;2.00;;;;;;;;;;5107897;28;20256;-63
2023/03/13 13:26:21;;;;;;;2.90;2.37;;;;;;;;;;5104605;28;20278;-63
2023/03/13 13:28:47;;;;;;;4.53;3.03;;;;;;;;;;5105715;28;20265;-63
2023/03/13 13:31:32;;;;;;;5.03;2.87;;;;;;;;;;5100654;28;20432;-63
2023/03/13 13:33:59;;;;;;;5.25;3.17;;;;;;;;;;5105784;28;20261;-63
2023/03/13 13:36:27;;;;;;;9.70;4.60;;;;;;;;;;5093808;28;20028;-63
2023/03/13 13:38:54;;;;;;;8.87;4.43;;;;;;;;;;5096702;28;20257;-64
2023/03/13 13:53:55;;;;;;;2.30;1.80;;;;;;;;;;5073127;27;2810454;-60
2023/03/13 13:56:28;;;;;;;4.80;2.23;;;;;;;;;;5122834;27;20055;-59
2023/03/13 13:59:14;;;;;;;4.23;2.53;;;;;;;;;;5123766;27;20088;-60
2023/03/13 14:01:42;;;;;;;2.03;1.43;;;;;;;;;;5124153;27;20094;-60
2023/03/13 14:04:27;;;;;;;2.17;1.63;;;;;;;;;;5123940;27;20465;-61
2023/03/13 14:06:57;;;;;;;2.88;2.08;;;;;;;;;;5118732;28;20023;-60
2023/03/13 14:09:36;;;;;;;5.00;3.07;;;;;;;;;;5128212;28;20039;-60
2023/03/13 14:12:22;;;;;;;2.53;2.10;;;;;;;;;;5129163;28;20035;-60
2023/03/13 14:14:49;;;;;;;5.17;3.07;;;;;;;;;;5128668;28;20020;-61
2023/03/13 14:17:16;;;;;;;4.73;3.23;;;;;;;;;;5126405;27;20098;-60
2023/03/13 14:19:43;;;;;;;2.63;2.30;;;;;;;;;;5124376;27;20373;-60
2023/03/13 14:22:13;;;;;;;4.83;3.17;;;;;;;;;;5122802;27;20031;-60
2023/03/13 14:24:39;;;;;;;4.60;2.73;;;;;;;;;;5123163;27;20064;-60
2023/03/13 14:27:17;;;;;;;10.63;5.20;;;;;;;;;;5125351;28;20027;-60
2023/03/13 14:29:59;;;;;;;21.60;7.60;;;;;;;;;;5129123;28;20422;-60
2023/03/13 14:32:26;;;;;;;15.27;8.37;;;;;;;;;;5129082;27;20016;-61
2023/03/13 14:34:53;;;;;;;14.23;5.40;;;;;;;;;;5129336;28;20051;-61
2023/03/13 14:37:36;;;;;;;15.27;7.60;;;;;;;;;;5128096;27;20102;-61
2023/03/13 14:40:18;;;;;;;11.73;6.77;;;;;;;;;;5124292;27;20027;-61
2023/03/13 14:42:50;;;;;;;10.87;5.00;;;;;;;;;;5123185;28;20515;-60
2023/03/13 14:45:28;;;;;;;5.30;3.97;;;;;;;;;;5123186;27;20488;-60
2023/03/13 14:47:55;;;;;;;5.30;3.33;;;;;;;;;;5122903;28;20027;-60
2023/03/13 14:50:24;;;;;;;7.50;4.43;;;;;;;;;;5127347;27;20092;-61
2023/03/13 14:52:55;;;;;;;6.43;4.33;;;;;;;;;;5127327;27;20036;-60
2023/03/13 14:55:22;;;;;;;5.10;2.87;;;;;;;;;;5114850;28;20474;-60
2023/03/13 14:58:17;;;;;;;10.87;4.20;;;;;;;;;;5114332;28;20522;-61
2023/03/13 15:00:45;;;;;;;3.63;2.83;;;;;;;;;;5097007;28;20084;-61
2023/03/13 15:03:13;;;;;;;16.03;2.73;;;;;;;;;;5109663;28;20032;-61
2023/03/13 15:05:39;;;;;;;2.70;1.87;;;;;;;;;;5108842;28;20024;-61
2023/03/13 15:08:26;;;;;;;9.60;2.77;;;;;;;;;;5109552;28;20031;-61
2023/03/13 15:10:53;;;;;;;6.80;4.53;;;;;;;;;;5110051;28;20063;-61